sensor_id;sensor_type;location;lat;lon;timestamp;P1;durP1;ratioP1;P2;durP2;ratioP2
56073;SDS011;41950;55.840;37.442;2023-07-29T00:00:34;4.53;;;2.30;;
56073;SDS011;41950;55.840;37.442;2023-07-29T00:02:59;4.55;;;2.33;;
56073;SDS011;41950;55.840;37.442;2023-07-29T00:05:27;3.90;;;2.47;;
56073;SDS011;41950;55.840;37.442;2023-07-29T00:07:53;4.88;;;2.50;;
56073;SDS011;41950;55.840;37.442;2023-07-29T00:10:18;3.67;;;2.40;;
56073;SDS011;41950;55.840;37.442;2023-07-29T00:12:45;5.20;;;2.80;;
56073;SDS011;41950;55.840;37.442;2023-07-29T00:15:11;4.85;;;2.60;;
56073;SDS011;41950;55.840;37.442;2023-07-29T00:17:37;4.78;;;3.17;;
56073;SDS011;41950;55.840;37.442;2023-07-29T00:20:03;3.83;;;2.20;;
56073;SDS011;41950;55.840;37.442;2023-07-29T00:22:30;4.28;;;2.50;;
56073;SDS011;41950;55.840;37.442;2023-07-29T00:24:56;5.32;;;2.58;;
56073;SDS011;41950;55.840;37.442;2023-07-29T00:27:25;6.25;;;3.28;;
56073;SDS011;41950;55.840;37.442;2023-07-29T00:29:51;3.70;;;2.33;;
56073;SDS011;41950;55.840;37.442;2023-07-29T00:32:17;4.30;;;2.70;;
56073;SDS011;41950;55.840;37.442;2023-07-29T00:34:45;4.63;;;2.75;;
56073;SDS011;41950;55.840;37.442;2023-07-29T00:37:11;4.93;;;2.97;;
56073;SDS011;41950;55.840;37.442;2023-07-29T00:39:37;4.90;;;2.70;;
56073;SDS011;41950;55.840;37.442;2023-07-29T00:42:03;4.60;;;2.90;;
56073;SDS011;41950;55.840;37.442;2023-07-29T00:44:29;4.85;;;2.60;;
56073;SDS011;41950;55.840;37.442;2023-07-29T00:46:56;4.03;;;3.13;;
56073;SDS011;41950;55.840;37.442;2023-07-29T00:49:23;3.47;;;2.58;;
56073;SDS011;41950;55.840;37.442;2023-07-29T00:51:49;4.40;;;3.00;;
56073;SDS011;41950;55.840;37.442;2023-07-29T00:54:15;4.20;;;3.00;;
56073;SDS011;41950;55.840;37.442;2023-07-29T00:56:41;5.40;;;3.70;;
56073;SDS011;41950;55.840;37.442;2023-07-29T00:59:07;3.47;;;2.60;;
56073;SDS011;41950;55.840;37.442;2023-07-29T01:01:36;4.93;;;2.83;;
56073;SDS011;41950;55.840;37.442;2023-07-29T01:04:02;5.80;;;2.90;;
56073;SDS011;41950;55.840;37.442;2023-07-29T01:06:34;4.03;;;3.03;;
56073;SDS011;41950;55.840;37.442;2023-07-29T01:12:24;3.65;;;2.17;;
56073;SDS011;41950;55.840;37.442;2023-07-29T01:17:39;3.63;;;2.40;;
56073;SDS011;41950;55.840;37.442;2023-07-29T01:20:08;3.97;;;2.60;;
56073;SDS011;41950;55.840;37.442;2023-07-29T01:22:36;4.60;;;3.00;;
56073;SDS011;41950;55.840;37.442;2023-07-29T01:25:03;4.00;;;2.85;;
56073;SDS011;41950;55.840;37.442;2023-07-29T01:27:30;4.28;;;2.80;;
56073;SDS011;41950;55.840;37.442;2023-07-29T01:29:56;3.63;;;2.88;;
56073;SDS011;41950;55.840;37.442;2023-07-29T01:37:42;4.13;;;3.38;;
56073;SDS011;41950;55.840;37.442;2023-07-29T01:40:11;4.50;;;3.30;;
56073;SDS011;41950;55.840;37.442;2023-07-29T01:42:37;6.03;;;3.60;;
56073;SDS011;41950;55.840;37.442;2023-07-29T01:45:03;4.20;;;3.47;;
56073;SDS011;41950;55.840;37.442;2023-07-29T01:47:30;4.20;;;3.53;;
56073;SDS011;41950;55.840;37.442;2023-07-29T01:49:56;6.28;;;3.55;;
56073;SDS011;41950;55.840;37.442;2023-07-29T01:52:21;5.07;;;3.67;;
56073;SDS011;41950;55.840;37.442;2023-07-29T01:54:48;4.43;;;3.15;;
56073;SDS011;41950;55.840;37.442;2023-07-29T01:57:13;6.00;;;3.10;;
56073;SDS011;41950;55.840;37.442;2023-07-29T01:59:39;6.70;;;3.17;;
56073;SDS011;41950;55.840;37.442;2023-07-29T02:02:05;5.05;;;3.72;;
56073;SDS011;41950;55.840;37.442;2023-07-29T02:04:31;4.72;;;3.25;;
56073;SDS011;41950;55.840;37.442;2023-07-29T02:06:57;5.40;;;3.38;;
56073;SDS011;41950;55.840;37.442;2023-07-29T02:09:22;4.47;;;3.17;;
56073;SDS011;41950;55.840;37.442;2023-07-29T02:11:48;4.43;;;3.42;;
56073;SDS011;41950;55.840;37.442;2023-07-29T02:14:14;4.55;;;3.45;;
56073;SDS011;41950;55.840;37.442;2023-07-29T02:16:39;5.55;;;3.75;;
56073;SDS011;41950;55.840;37.442;2023-07-29T02:19:25;5.15;;;3.38;;
56073;SDS011;41950;55.840;37.442;2023-07-29T02:21:50;5.57;;;3.22;;
56073;SDS011;41950;55.840;37.442;2023-07-29T02:24:16;6.20;;;4.25;;
56073;SDS011;41950;55.840;37.442;2023-07-29T02:26:42;5.10;;;3.75;;
56073;SDS011;41950;55.840;37.442;2023-07-29T02:29:08;5.10;;;3.50;;
56073;SDS011;41950;55.840;37.442;2023-07-29T02:31:33;5.35;;;3.55;;
56073;SDS011;41950;55.840;37.442;2023-07-29T02:34:00;5.43;;;4.10;;
56073;SDS011;41950;55.840;37.442;2023-07-29T02:36:25;4.30;;;3.55;;
56073;SDS011;41950;55.840;37.442;2023-07-29T02:38:51;5.35;;;3.55;;
56073;SDS011;41950;55.840;37.442;2023-07-29T02:41:17;6.63;;;3.95;;
56073;SDS011;41950;55.840;37.442;2023-07-29T02:43:42;5.75;;;3.95;;
56073;SDS011;41950;55.840;37.442;2023-07-29T02:46:12;5.05;;;3.85;;
56073;SDS011;41950;55.840;37.442;2023-07-29T02:48:38;5.70;;;3.97;;
56073;SDS011;41950;55.840;37.442;2023-07-29T02:51:04;5.90;;;3.65;;
56073;SDS011;41950;55.840;37.442;2023-07-29T02:53:29;5.25;;;4.03;;
56073;SDS011;41950;55.840;37.442;2023-07-29T02:55:55;4.70;;;3.90;;
56073;SDS011;41950;55.840;37.442;2023-07-29T02:58:21;4.82;;;3.90;;
56073;SDS011;41950;55.840;37.442;2023-07-29T03:00:46;6.78;;;4.57;;
56073;SDS011;41950;55.840;37.442;2023-07-29T03:03:13;6.35;;;4.30;;
56073;SDS011;41950;55.840;37.442;2023-07-29T03:05:42;6.45;;;4.22;;
56073;SDS011;41950;55.840;37.442;2023-07-29T03:08:14;5.60;;;4.38;;
56073;SDS011;41950;55.840;37.442;2023-07-29T03:10:40;5.20;;;4.40;;
56073;SDS011;41950;55.840;37.442;2023-07-29T03:13:07;8.80;;;4.93;;
56073;SDS011;41950;55.840;37.442;2023-07-29T03:15:32;5.95;;;5.10;;
56073;SDS011;41950;55.840;37.442;2023-07-29T03:18:00;5.82;;;4.93;;
56073;SDS011;41950;55.840;37.442;2023-07-29T03:20:25;6.18;;;4.68;;
56073;SDS011;41950;55.840;37.442;2023-07-29T03:22:51;6.35;;;5.13;;
56073;SDS011;41950;55.840;37.442;2023-07-29T03:25:17;7.68;;;5.85;;
56073;SDS011;41950;55.840;37.442;2023-07-29T03:27:43;6.60;;;5.85;;
56073;SDS011;41950;55.840;37.442;2023-07-29T03:30:09;7.32;;;6.03;;
56073;SDS011;41950;55.840;37.442;2023-07-29T03:32:34;5.80;;;5.05;;
56073;SDS011;41950;55.840;37.442;2023-07-29T03:35:00;7.53;;;5.60;;
56073;SDS011;41950;55.840;37.442;2023-07-29T03:37:26;6.78;;;5.28;;
56073;SDS011;41950;55.840;37.442;2023-07-29T03:39:51;6.78;;;5.18;;
56073;SDS011;41950;55.840;37.442;2023-07-29T03:42:18;6.72;;;5.32;;
56073;SDS011;41950;55.840;37.442;2023-07-29T03:44:43;5.95;;;5.00;;
56073;SDS011;41950;55.840;37.442;2023-07-29T03:47:09;6.65;;;4.47;;
56073;SDS011;41950;55.840;37.442;2023-07-29T03:49:35;6.47;;;4.85;;
56073;SDS011;41950;55.840;37.442;2023-07-29T03:52:00;7.38;;;5.22;;
56073;SDS011;41950;55.840;37.442;2023-07-29T03:54:26;6.25;;;4.50;;
56073;SDS011;41950;55.840;37.442;2023-07-29T03:56:52;5.55;;;4.20;;
56073;SDS011;41950;55.840;37.442;2023-07-29T03:59:17;5.70;;;4.00;;
56073;SDS011;41950;55.840;37.442;2023-07-29T04:01:43;5.00;;;4.50;;
56073;SDS011;41950;55.840;37.442;2023-07-29T04:04:08;6.32;;;4.43;;
56073;SDS011;41950;55.840;37.442;2023-07-29T04:06:34;5.13;;;4.35;;
56073;SDS011;41950;55.840;37.442;2023-07-29T04:09:00;4.45;;;4.05;;
56073;SDS011;41950;55.840;37.442;2023-07-29T04:11:26;5.00;;;3.90;;
56073;SDS011;41950;55.840;37.442;2023-07-29T04:13:51;5.22;;;4.22;;
56073;SDS011;41950;55.840;37.442;2023-07-29T04:16:17;5.10;;;4.13;;
56073;SDS011;41950;55.840;37.442;2023-07-29T04:18:43;5.05;;;3.60;;
56073;SDS011;41950;55.840;37.442;2023-07-29T04:21:08;4.95;;;3.75;;
56073;SDS011;41950;55.840;37.442;2023-07-29T04:23:34;5.22;;;4.05;;
56073;SDS011;41950;55.840;37.442;2023-07-29T04:26:00;5.28;;;4.13;;
56073;SDS011;41950;55.840;37.442;2023-07-29T04:28:26;6.55;;;4.97;;
56073;SDS011;41950;55.840;37.442;2023-07-29T04:30:53;5.03;;;4.30;;
56073;SDS011;41950;55.840;37.442;2023-07-29T04:33:20;5.70;;;4.30;;
56073;SDS011;41950;55.840;37.442;2023-07-29T04:35:46;5.05;;;4.30;;
56073;SDS011;41950;55.840;37.442;2023-07-29T04:38:11;4.60;;;3.90;;
56073;SDS011;41950;55.840;37.442;2023-07-29T04:40:37;5.07;;;4.35;;
56073;SDS011;41950;55.840;37.442;2023-07-29T04:43:03;5.93;;;4.13;;
56073;SDS011;41950;55.840;37.442;2023-07-29T04:45:29;5.72;;;4.07;;
56073;SDS011;41950;55.840;37.442;2023-07-29T04:47:55;4.75;;;3.60;;
56073;SDS011;41950;55.840;37.442;2023-07-29T04:50:21;4.85;;;3.90;;
56073;SDS011;41950;55.840;37.442;2023-07-29T04:52:47;5.43;;;3.83;;
56073;SDS011;41950;55.840;37.442;2023-07-29T04:55:13;4.85;;;4.07;;
56073;SDS011;41950;55.840;37.442;2023-07-29T04:57:38;5.35;;;4.20;;
56073;SDS011;41950;55.840;37.442;2023-07-29T05:00:04;4.60;;;3.90;;
56073;SDS011;41950;55.840;37.442;2023-07-29T05:02:31;5.63;;;3.42;;
56073;SDS011;41950;55.840;37.442;2023-07-29T05:04:57;5.50;;;3.53;;
56073;SDS011;41950;55.840;37.442;2023-07-29T05:07:22;5.18;;;3.67;;
56073;SDS011;41950;55.840;37.442;2023-07-29T05:09:48;5.07;;;3.53;;
56073;SDS011;41950;55.840;37.442;2023-07-29T05:12:14;4.72;;;3.60;;
56073;SDS011;41950;55.840;37.442;2023-07-29T05:14:40;5.80;;;3.60;;
56073;SDS011;41950;55.840;37.442;2023-07-29T05:17:05;5.53;;;3.65;;
56073;SDS011;41950;55.840;37.442;2023-07-29T05:19:31;5.10;;;3.90;;
56073;SDS011;41950;55.840;37.442;2023-07-29T05:21:57;5.90;;;4.32;;
56073;SDS011;41950;55.840;37.442;2023-07-29T05:24:23;5.18;;;3.60;;
56073;SDS011;41950;55.840;37.442;2023-07-29T05:26:49;4.47;;;3.75;;
56073;SDS011;41950;55.840;37.442;2023-07-29T05:29:15;5.00;;;3.83;;
56073;SDS011;41950;55.840;37.442;2023-07-29T05:31:41;5.88;;;3.80;;
56073;SDS011;41950;55.840;37.442;2023-07-29T05:34:06;4.47;;;3.75;;
56073;SDS011;41950;55.840;37.442;2023-07-29T05:36:32;5.07;;;3.80;;
56073;SDS011;41950;55.840;37.442;2023-07-29T05:38:58;5.50;;;4.00;;
56073;SDS011;41950;55.840;37.442;2023-07-29T05:41:23;5.85;;;3.60;;
56073;SDS011;41950;55.840;37.442;2023-07-29T05:43:51;4.20;;;3.80;;
56073;SDS011;41950;55.840;37.442;2023-07-29T05:46:16;4.85;;;3.50;;
56073;SDS011;41950;55.840;37.442;2023-07-29T05:48:42;4.70;;;4.00;;
56073;SDS011;41950;55.840;37.442;2023-07-29T05:51:08;4.10;;;3.47;;
56073;SDS011;41950;55.840;37.442;2023-07-29T05:53:33;6.18;;;3.65;;
56073;SDS011;41950;55.840;37.442;2023-07-29T05:55:59;4.32;;;3.65;;
56073;SDS011;41950;55.840;37.442;2023-07-29T05:58:25;5.55;;;3.35;;
56073;SDS011;41950;55.840;37.442;2023-07-29T06:00:51;6.25;;;3.60;;
56073;SDS011;41950;55.840;37.442;2023-07-29T06:03:17;4.80;;;3.40;;
56073;SDS011;41950;55.840;37.442;2023-07-29T06:05:42;4.40;;;3.20;;
56073;SDS011;41950;55.840;37.442;2023-07-29T06:08:08;4.45;;;3.50;;
56073;SDS011;41950;55.840;37.442;2023-07-29T06:10:34;4.72;;;3.15;;
56073;SDS011;41950;55.840;37.442;2023-07-29T06:13:00;6.18;;;3.78;;
56073;SDS011;41950;55.840;37.442;2023-07-29T06:15:26;5.32;;;3.53;;
56073;SDS011;41950;55.840;37.442;2023-07-29T06:17:51;4.63;;;3.33;;
56073;SDS011;41950;55.840;37.442;2023-07-29T06:20:17;4.70;;;3.78;;
56073;SDS011;41950;55.840;37.442;2023-07-29T06:22:42;5.22;;;3.67;;
56073;SDS011;41950;55.840;37.442;2023-07-29T06:25:08;5.22;;;3.80;;
56073;SDS011;41950;55.840;37.442;2023-07-29T06:27:34;4.63;;;3.70;;
56073;SDS011;41950;55.840;37.442;2023-07-29T06:30:00;6.75;;;3.92;;
56073;SDS011;41950;55.840;37.442;2023-07-29T06:32:26;5.70;;;5.07;;
56073;SDS011;41950;55.840;37.442;2023-07-29T06:34:52;6.35;;;4.20;;
56073;SDS011;41950;55.840;37.442;2023-07-29T06:37:19;5.35;;;3.85;;
56073;SDS011;41950;55.840;37.442;2023-07-29T06:39:45;6.72;;;4.40;;
56073;SDS011;41950;55.840;37.442;2023-07-29T06:42:11;5.38;;;3.78;;
56073;SDS011;41950;55.840;37.442;2023-07-29T06:44:37;4.80;;;4.00;;
56073;SDS011;41950;55.840;37.442;2023-07-29T06:47:03;5.47;;;4.00;;
56073;SDS011;41950;55.840;37.442;2023-07-29T06:49:29;6.43;;;4.63;;
56073;SDS011;41950;55.840;37.442;2023-07-29T06:51:54;5.53;;;4.70;;
56073;SDS011;41950;55.840;37.442;2023-07-29T06:54:23;5.53;;;4.45;;
56073;SDS011;41950;55.840;37.442;2023-07-29T06:56:51;5.40;;;3.78;;
56073;SDS011;41950;55.840;37.442;2023-07-29T06:59:17;5.53;;;4.38;;
56073;SDS011;41950;55.840;37.442;2023-07-29T07:01:42;5.00;;;4.05;;
56073;SDS011;41950;55.840;37.442;2023-07-29T07:04:08;6.68;;;4.25;;
56073;SDS011;41950;55.840;37.442;2023-07-29T07:06:34;4.93;;;4.05;;
56073;SDS011;41950;55.840;37.442;2023-07-29T07:08:59;5.10;;;4.20;;
56073;SDS011;41950;55.840;37.442;2023-07-29T07:11:25;5.97;;;4.00;;
56073;SDS011;41950;55.840;37.442;2023-07-29T07:13:51;5.43;;;3.92;;
56073;SDS011;41950;55.840;37.442;2023-07-29T07:16:16;4.97;;;4.05;;
56073;SDS011;41950;55.840;37.442;2023-07-29T07:18:42;6.40;;;4.05;;
56073;SDS011;41950;55.840;37.442;2023-07-29T07:21:08;5.05;;;4.00;;
56073;SDS011;41950;55.840;37.442;2023-07-29T07:23:33;4.97;;;3.67;;
56073;SDS011;41950;55.840;37.442;2023-07-29T07:25:59;4.60;;;4.00;;
56073;SDS011;41950;55.840;37.442;2023-07-29T07:28:25;4.90;;;3.92;;
56073;SDS011;41950;55.840;37.442;2023-07-29T07:30:51;4.45;;;3.83;;
56073;SDS011;41950;55.840;37.442;2023-07-29T07:33:16;5.30;;;4.30;;
56073;SDS011;41950;55.840;37.442;2023-07-29T07:35:42;6.30;;;4.53;;
56073;SDS011;41950;55.840;37.442;2023-07-29T07:38:08;5.82;;;4.03;;
56073;SDS011;41950;55.840;37.442;2023-07-29T07:40:35;4.70;;;3.63;;
56073;SDS011;41950;55.840;37.442;2023-07-29T07:43:01;5.85;;;4.30;;
56073;SDS011;41950;55.840;37.442;2023-07-29T07:45:27;4.95;;;3.97;;
56073;SDS011;41950;55.840;37.442;2023-07-29T07:47:53;4.57;;;3.38;;
56073;SDS011;41950;55.840;37.442;2023-07-29T07:50:19;5.38;;;4.03;;
56073;SDS011;41950;55.840;37.442;2023-07-29T07:52:45;5.07;;;4.57;;
56073;SDS011;41950;55.840;37.442;2023-07-29T07:55:10;4.80;;;3.42;;
56073;SDS011;41950;55.840;37.442;2023-07-29T07:57:37;5.00;;;3.83;;
56073;SDS011;41950;55.840;37.442;2023-07-29T08:00:03;4.93;;;3.90;;
56073;SDS011;41950;55.840;37.442;2023-07-29T08:02:30;6.22;;;4.32;;
56073;SDS011;41950;55.840;37.442;2023-07-29T08:04:56;4.47;;;3.22;;
56073;SDS011;41950;55.840;37.442;2023-07-29T08:07:22;7.07;;;3.75;;
56073;SDS011;41950;55.840;37.442;2023-07-29T08:09:47;4.55;;;4.10;;
56073;SDS011;41950;55.840;37.442;2023-07-29T08:12:13;4.65;;;3.50;;
56073;SDS011;41950;55.840;37.442;2023-07-29T08:14:39;5.05;;;3.53;;
56073;SDS011;41950;55.840;37.442;2023-07-29T08:17:04;4.80;;;3.75;;
56073;SDS011;41950;55.840;37.442;2023-07-29T08:19:30;5.63;;;4.20;;
56073;SDS011;41950;55.840;37.442;2023-07-29T08:21:56;5.13;;;4.07;;
56073;SDS011;41950;55.840;37.442;2023-07-29T08:24:22;4.88;;;3.97;;
56073;SDS011;41950;55.840;37.442;2023-07-29T08:26:47;4.47;;;3.45;;
56073;SDS011;41950;55.840;37.442;2023-07-29T08:29:16;4.75;;;3.28;;
56073;SDS011;41950;55.840;37.442;2023-07-29T08:31:41;4.25;;;2.17;;
56073;SDS011;41950;55.840;37.442;2023-07-29T08:34:07;4.13;;;2.70;;
56073;SDS011;41950;55.840;37.442;2023-07-29T08:36:33;5.07;;;2.90;;
56073;SDS011;41950;55.840;37.442;2023-07-29T08:38:58;4.55;;;3.03;;
56073;SDS011;41950;55.840;37.442;2023-07-29T08:42:07;5.22;;;3.15;;
56073;SDS011;41950;55.840;37.442;2023-07-29T08:44:20;5.22;;;3.00;;
56073;SDS011;41950;55.840;37.442;2023-07-29T08:46:49;4.28;;;2.88;;
56073;SDS011;41950;55.840;37.442;2023-07-29T08:49:16;3.72;;;2.70;;
56073;SDS011;41950;55.840;37.442;2023-07-29T08:51:48;4.18;;;3.00;;
56073;SDS011;41950;55.840;37.442;2023-07-29T08:54:14;4.15;;;2.65;;
56073;SDS011;41950;55.840;37.442;2023-07-29T08:56:41;4.50;;;3.03;;
56073;SDS011;41950;55.840;37.442;2023-07-29T08:59:09;3.95;;;2.80;;
56073;SDS011;41950;55.840;37.442;2023-07-29T09:01:36;5.22;;;3.20;;
56073;SDS011;41950;55.840;37.442;2023-07-29T09:04:06;5.90;;;3.60;;
56073;SDS011;41950;55.840;37.442;2023-07-29T09:06:32;5.05;;;3.00;;
56073;SDS011;41950;55.840;37.442;2023-07-29T09:08:58;5.68;;;3.22;;
56073;SDS011;41950;55.840;37.442;2023-07-29T09:11:24;4.72;;;3.20;;
56073;SDS011;41950;55.840;37.442;2023-07-29T09:13:50;4.75;;;3.13;;
56073;SDS011;41950;55.840;37.442;2023-07-29T09:16:18;5.00;;;3.70;;
56073;SDS011;41950;55.840;37.442;2023-07-29T09:18:47;6.63;;;4.18;;
56073;SDS011;41950;55.840;37.442;2023-07-29T09:21:15;4.13;;;3.20;;
56073;SDS011;41950;55.840;37.442;2023-07-29T09:23:42;5.10;;;3.60;;
56073;SDS011;41950;55.840;37.442;2023-07-29T09:26:09;4.68;;;3.58;;
56073;SDS011;41950;55.840;37.442;2023-07-29T09:28:36;4.80;;;3.80;;
56073;SDS011;41950;55.840;37.442;2023-07-29T09:31:03;5.32;;;3.92;;
56073;SDS011;41950;55.840;37.442;2023-07-29T09:33:29;5.13;;;3.67;;
56073;SDS011;41950;55.840;37.442;2023-07-29T09:36:00;5.82;;;3.97;;
56073;SDS011;41950;55.840;37.442;2023-07-29T09:38:27;3.90;;;3.30;;
56073;SDS011;41950;55.840;37.442;2023-07-29T09:40:56;5.65;;;3.50;;
56073;SDS011;41950;55.840;37.442;2023-07-29T09:43:30;4.50;;;3.13;;
56073;SDS011;41950;55.840;37.442;2023-07-29T09:46:00;5.15;;;2.90;;
56073;SDS011;41950;55.840;37.442;2023-07-29T09:48:35;4.53;;;3.20;;
56073;SDS011;41950;55.840;37.442;2023-07-29T09:51:11;4.82;;;3.42;;
56073;SDS011;41950;55.840;37.442;2023-07-29T09:53:42;6.47;;;3.53;;
56073;SDS011;41950;55.840;37.442;2023-07-29T09:56:09;5.22;;;4.00;;
56073;SDS011;41950;55.840;37.442;2023-07-29T09:58:36;5.13;;;3.90;;
56073;SDS011;41950;55.840;37.442;2023-07-29T10:01:04;4.78;;;3.40;;
56073;SDS011;41950;55.840;37.442;2023-07-29T10:03:33;6.25;;;3.60;;
56073;SDS011;41950;55.840;37.442;2023-07-29T10:06:00;5.15;;;4.20;;
56073;SDS011;41950;55.840;37.442;2023-07-29T10:08:29;5.40;;;4.03;;
56073;SDS011;41950;55.840;37.442;2023-07-29T10:11:06;4.78;;;2.70;;
56073;SDS011;41950;55.840;37.442;2023-07-29T10:13:33;4.53;;;3.05;;
56073;SDS011;41950;55.840;37.442;2023-07-29T10:16:00;4.35;;;3.00;;
56073;SDS011;41950;55.840;37.442;2023-07-29T10:18:29;4.05;;;3.15;;
56073;SDS011;41950;55.840;37.442;2023-07-29T10:20:56;5.15;;;3.45;;
56073;SDS011;41950;55.840;37.442;2023-07-29T10:23:24;4.13;;;3.42;;
56073;SDS011;41950;55.840;37.442;2023-07-29T10:25:56;4.82;;;3.38;;
56073;SDS011;41950;55.840;37.442;2023-07-29T10:28:28;4.95;;;3.40;;
56073;SDS011;41950;55.840;37.442;2023-07-29T10:30:56;4.97;;;3.72;;
56073;SDS011;41950;55.840;37.442;2023-07-29T10:33:22;5.70;;;3.72;;
56073;SDS011;41950;55.840;37.442;2023-07-29T10:35:48;4.85;;;3.10;;
56073;SDS011;41950;55.840;37.442;2023-07-29T10:38:14;5.40;;;3.63;;
56073;SDS011;41950;55.840;37.442;2023-07-29T10:40:51;4.47;;;3.40;;
56073;SDS011;41950;55.840;37.442;2023-07-29T10:43:32;4.45;;;3.45;;
56073;SDS011;41950;55.840;37.442;2023-07-29T10:46:19;5.07;;;3.55;;
56073;SDS011;41950;55.840;37.442;2023-07-29T10:53:46;5.40;;;3.80;;
56073;SDS011;41950;55.840;37.442;2023-07-29T10:56:12;6.03;;;3.92;;
56073;SDS011;41950;55.840;37.442;2023-07-29T10:58:38;5.20;;;3.47;;
56073;SDS011;41950;55.840;37.442;2023-07-29T11:01:13;5.13;;;3.65;;
56073;SDS011;41950;55.840;37.442;2023-07-29T11:12:34;4.80;;;3.53;;
56073;SDS011;41950;55.840;37.442;2023-07-29T11:15:03;5.38;;;3.53;;
56073;SDS011;41950;55.840;37.442;2023-07-29T11:20:16;4.72;;;3.63;;
56073;SDS011;41950;55.840;37.442;2023-07-29T11:22:43;6.45;;;3.63;;
56073;SDS011;41950;55.840;37.442;2023-07-29T11:25:13;4.43;;;3.00;;
56073;SDS011;41950;55.840;37.442;2023-07-29T11:27:40;4.40;;;3.20;;
56073;SDS011;41950;55.840;37.442;2023-07-29T11:30:07;4.70;;;3.58;;
56073;SDS011;41950;55.840;37.442;2023-07-29T11:32:37;4.93;;;3.60;;
56073;SDS011;41950;55.840;37.442;2023-07-29T11:35:11;5.53;;;3.80;;
56073;SDS011;41950;55.840;37.442;2023-07-29T11:37:40;6.22;;;3.67;;
56073;SDS011;41950;55.840;37.442;2023-07-29T11:40:08;5.30;;;3.83;;
56073;SDS011;41950;55.840;37.442;2023-07-29T11:42:37;4.93;;;4.00;;
56073;SDS011;41950;55.840;37.442;2023-07-29T11:45:12;4.93;;;3.72;;
56073;SDS011;41950;55.840;37.442;2023-07-29T11:47:38;5.63;;;3.60;;
56073;SDS011;41950;55.840;37.442;2023-07-29T11:50:05;4.72;;;3.72;;
56073;SDS011;41950;55.840;37.442;2023-07-29T11:52:35;5.13;;;4.25;;
56073;SDS011;41950;55.840;37.442;2023-07-29T11:55:05;5.53;;;4.18;;
56073;SDS011;41950;55.840;37.442;2023-07-29T11:57:33;5.53;;;4.30;;
56073;SDS011;41950;55.840;37.442;2023-07-29T12:00:01;4.75;;;3.08;;
56073;SDS011;41950;55.840;37.442;2023-07-29T12:02:29;3.78;;;3.00;;
56073;SDS011;41950;55.840;37.442;2023-07-29T12:04:56;4.25;;;3.35;;
56073;SDS011;41950;55.840;37.442;2023-07-29T12:07:23;3.70;;;1.90;;
56073;SDS011;41950;55.840;37.442;2023-07-29T12:09:48;3.65;;;2.70;;
56073;SDS011;41950;55.840;37.442;2023-07-29T12:12:15;5.47;;;2.60;;
56073;SDS011;41950;55.840;37.442;2023-07-29T12:14:47;4.30;;;3.22;;
56073;SDS011;41950;55.840;37.442;2023-07-29T12:17:13;4.32;;;2.65;;
56073;SDS011;41950;55.840;37.442;2023-07-29T12:19:40;10.13;;;9.13;;
56073;SDS011;41950;55.840;37.442;2023-07-29T12:22:08;4.65;;;2.25;;
56073;SDS011;41950;55.840;37.442;2023-07-29T12:24:36;4.15;;;1.98;;
56073;SDS011;41950;55.840;37.442;2023-07-29T12:27:04;4.10;;;2.05;;
56073;SDS011;41950;55.840;37.442;2023-07-29T12:29:30;3.47;;;1.95;;
56073;SDS011;41950;55.840;37.442;2023-07-29T12:31:59;3.95;;;1.75;;
56073;SDS011;41950;55.840;37.442;2023-07-29T12:34:27;3.28;;;1.90;;
56073;SDS011;41950;55.840;37.442;2023-07-29T12:36:55;4.07;;;2.30;;
56073;SDS011;41950;55.840;37.442;2023-07-29T12:39:30;3.63;;;2.20;;
56073;SDS011;41950;55.840;37.442;2023-07-29T12:41:58;4.68;;;2.17;;
56073;SDS011;41950;55.840;37.442;2023-07-29T12:44:26;3.60;;;2.35;;
56073;SDS011;41950;55.840;37.442;2023-07-29T12:46:55;5.20;;;2.20;;
56073;SDS011;41950;55.840;37.442;2023-07-29T12:49:20;3.78;;;2.83;;
56073;SDS011;41950;55.840;37.442;2023-07-29T12:51:47;4.07;;;2.30;;
56073;SDS011;41950;55.840;37.442;2023-07-29T12:54:13;3.33;;;1.83;;
56073;SDS011;41950;55.840;37.442;2023-07-29T12:56:39;4.35;;;2.28;;
56073;SDS011;41950;55.840;37.442;2023-07-29T12:59:06;5.22;;;2.42;;
56073;SDS011;41950;55.840;37.442;2023-07-29T13:01:32;5.22;;;2.38;;
56073;SDS011;41950;55.840;37.442;2023-07-29T13:03:58;3.85;;;2.10;;
56073;SDS011;41950;55.840;37.442;2023-07-29T13:06:23;4.90;;;2.30;;
56073;SDS011;41950;55.840;37.442;2023-07-29T13:08:49;3.97;;;1.90;;
56073;SDS011;41950;55.840;37.442;2023-07-29T13:11:15;3.72;;;2.00;;
56073;SDS011;41950;55.840;37.442;2023-07-29T13:13:42;4.15;;;2.47;;
56073;SDS011;41950;55.840;37.442;2023-07-29T13:16:08;5.15;;;2.30;;
56073;SDS011;41950;55.840;37.442;2023-07-29T13:18:33;3.70;;;2.13;;
56073;SDS011;41950;55.840;37.442;2023-07-29T13:20:59;3.40;;;2.10;;
56073;SDS011;41950;55.840;37.442;2023-07-29T13:23:26;3.45;;;2.15;;
56073;SDS011;41950;55.840;37.442;2023-07-29T13:25:53;5.32;;;2.40;;
56073;SDS011;41950;55.840;37.442;2023-07-29T13:28:18;4.35;;;2.30;;
56073;SDS011;41950;55.840;37.442;2023-07-29T13:30:44;4.00;;;2.42;;
56073;SDS011;41950;55.840;37.442;2023-07-29T13:33:10;5.53;;;2.28;;
56073;SDS011;41950;55.840;37.442;2023-07-29T13:35:36;3.80;;;2.25;;
56073;SDS011;41950;55.840;37.442;2023-07-29T13:38:02;3.83;;;1.95;;
56073;SDS011;41950;55.840;37.442;2023-07-29T13:40:28;4.22;;;2.17;;
56073;SDS011;41950;55.840;37.442;2023-07-29T13:42:54;5.82;;;2.40;;
56073;SDS011;41950;55.840;37.442;2023-07-29T13:45:20;4.90;;;2.40;;
56073;SDS011;41950;55.840;37.442;2023-07-29T13:47:46;4.50;;;2.20;;
56073;SDS011;41950;55.840;37.442;2023-07-29T13:50:16;4.22;;;2.30;;
56073;SDS011;41950;55.840;37.442;2023-07-29T13:52:45;5.20;;;2.50;;
56073;SDS011;41950;55.840;37.442;2023-07-29T13:55:11;3.72;;;2.35;;
56073;SDS011;41950;55.840;37.442;2023-07-29T13:57:38;4.63;;;2.42;;
56073;SDS011;41950;55.840;37.442;2023-07-29T14:00:10;4.32;;;2.30;;
56073;SDS011;41950;55.840;37.442;2023-07-29T14:02:36;4.45;;;2.28;;
56073;SDS011;41950;55.840;37.442;2023-07-29T14:05:02;4.75;;;2.15;;
56073;SDS011;41950;55.840;37.442;2023-07-29T14:07:31;4.03;;;2.03;;
56073;SDS011;41950;55.840;37.442;2023-07-29T14:09:57;3.45;;;1.95;;
56073;SDS011;41950;55.840;37.442;2023-07-29T14:12:22;3.90;;;2.00;;
56073;SDS011;41950;55.840;37.442;2023-07-29T14:14:48;4.25;;;2.17;;
56073;SDS011;41950;55.840;37.442;2023-07-29T14:17:14;3.67;;;2.35;;
56073;SDS011;41950;55.840;37.442;2023-07-29T14:19:39;4.38;;;2.10;;
56073;SDS011;41950;55.840;37.442;2023-07-29T14:22:05;4.55;;;2.45;;
56073;SDS011;41950;55.840;37.442;2023-07-29T14:24:31;4.72;;;2.35;;
56073;SDS011;41950;55.840;37.442;2023-07-29T14:26:57;4.03;;;2.40;;
56073;SDS011;41950;55.840;37.442;2023-07-29T14:29:22;5.18;;;2.75;;
56073;SDS011;41950;55.840;37.442;2023-07-29T14:31:49;3.97;;;2.47;;
56073;SDS011;41950;55.840;37.442;2023-07-29T14:34:15;3.97;;;2.60;;
56073;SDS011;41950;55.840;37.442;2023-07-29T14:36:41;5.18;;;2.53;;
56073;SDS011;41950;55.840;37.442;2023-07-29T14:39:06;5.75;;;2.38;;
56073;SDS011;41950;55.840;37.442;2023-07-29T14:41:32;4.68;;;2.55;;
56073;SDS011;41950;55.840;37.442;2023-07-29T14:43:58;3.58;;;2.22;;
56073;SDS011;41950;55.840;37.442;2023-07-29T14:46:24;4.60;;;2.60;;
56073;SDS011;41950;55.840;37.442;2023-07-29T14:48:49;6.82;;;2.70;;
56073;SDS011;41950;55.840;37.442;2023-07-29T14:51:15;4.70;;;2.30;;
56073;SDS011;41950;55.840;37.442;2023-07-29T14:53:41;4.43;;;2.55;;
56073;SDS011;41950;55.840;37.442;2023-07-29T14:56:06;5.15;;;2.33;;
56073;SDS011;41950;55.840;37.442;2023-07-29T14:58:32;4.20;;;2.50;;